Time;durP1;ratioP1;P1;durP2;ratioP2;P2;SDS_P1;SDS_P2;PMS_P1;PMS_P2;Temp;Humidity;BMP_temperature;BMP_pressure;BME280_temperature;BME280_humidity;BME280_pressure;Samples;Min_cycle;Max_cycle;Signal;HPM_P1;HPM_P2
2022/05/26 00:01:25;;;;;;;6.10;2.88;;;;;;;18.63;51.61;101635.28;5014001;28;123775;-57
2022/05/26 00:03:52;;;;;;;5.65;2.75;;;;;;;18.64;51.69;101639.66;5013683;28;109778;-61
2022/05/26 00:06:23;;;;;;;3.90;2.75;;;;;;;18.63;51.96;101641.50;5017520;28;109024;-57
2022/05/26 00:08:50;;;;;;;4.82;3.13;;;;;;;18.63;51.83;101640.66;5012268;28;123993;-57
2022/05/26 00:11:22;;;;;;;3.33;2.42;;;;;;;18.63;52.10;101635.28;5014608;28;124311;-57
2022/05/26 00:13:49;;;;;;;5.50;3.00;;;;;;;18.61;51.95;101634.50;5012431;28;109958;-57
2022/05/26 00:16:18;;;;;;;4.65;2.95;;;;;;;18.61;52.33;101638.06;5013213;28;108952;-57
2022/05/26 00:18:46;;;;;;;4.55;3.08;;;;;;;18.61;52.30;101637.19;5011651;28;123862;-57
2022/05/26 00:21:15;;;;;;;4.35;2.75;;;;;;;18.57;52.44;101630.31;5009664;28;124393;-57
2022/05/26 00:23:42;;;;;;;5.22;3.10;;;;;;;18.55;52.56;101637.59;5014352;28;109481;-57
2022/05/26 00:26:09;;;;;;;4.05;3.03;;;;;;;18.54;52.76;101635.88;5012412;28;108974;-57
2022/05/26 00:28:36;;;;;;;5.93;3.13;;;;;;;18.53;52.59;101639.53;5011863;28;123862;-58
2022/05/26 00:31:03;;;;;;;4.25;2.65;;;;;;;18.52;52.78;101632.44;5014084;28;123757;-57
2022/05/26 00:33:30;;;;;;;6.32;2.90;;;;;;;18.51;52.91;101636.09;5014995;28;109090;-58
2022/05/26 00:36:09;;;;;;;5.90;3.05;;;;;;;18.50;52.99;101640.59;5015339;28;108166;-57
2022/05/26 00:38:36;;;;;;;5.25;3.00;;;;;;;18.49;52.92;101642.41;5013103;28;124691;-57
2022/05/26 00:41:07;;;;;;;4.53;2.88;;;;;;;18.49;53.12;101638.84;5012226;28;125166;-57
2022/05/26 00:43:35;;;;;;;4.32;2.90;;;;;;;18.49;53.13;101642.41;5011592;28;110625;-57
2022/05/26 00:46:23;;;;;;;4.05;3.00;;;;;;;18.47;53.06;101647.00;5012218;28;110065;-57
2022/05/26 00:48:54;;;;;;;6.07;3.10;;;;;;;18.45;53.22;101648.94;5011410;28;124036;-57
2022/05/26 00:51:32;;;;;;;4.43;3.10;;;;;;;18.44;53.21;101641.84;5012437;28;124226;-57
2022/05/26 00:54:04;;;;;;;4.80;3.03;;;;;;;18.43;53.34;101642.81;5009416;28;110139;-58
2022/05/26 00:56:49;;;;;;;5.18;3.25;;;;;;;18.42;53.18;101638.41;5014102;28;109436;-57
2022/05/26 00:59:25;;;;;;;;;;;;;;;18.39;52.54;101649.34;5014555;28;123941;-57
2022/05/26 01:01:55;;;;;;;8.52;3.20;;;;;;;18.41;52.77;101642.03;5018845;28;125116;-57
2022/05/26 01:04:27;;;;;;;4.57;3.05;;;;;;;18.41;52.97;101647.41;5014740;28;109190;-58
2022/05/26 01:07:08;;;;;;;5.18;3.20;;;;;;;18.39;53.14;101649.34;5011836;28;108755;-57
2022/05/26 01:09:35;;;;;;;6.85;3.53;;;;;;;18.40;53.12;101651.06;5009654;28;124121;-57
2022/05/26 01:12:03;;;;;;;6.07;3.47;;;;;;;18.41;53.24;101655.47;5013244;28;124238;-57
2022/05/26 01:14:33;;;;;;;6.53;3.70;;;;;;;18.43;53.34;101650.84;5015183;28;109519;-57
2022/05/26 01:17:19;;;;;;;6.38;3.95;;;;;;;18.43;53.41;101650.84;5013194;28;108897;-57
2022/05/26 01:20:08;;;;;;;7.05;3.80;;;;;;;18.43;53.29;101656.22;5010405;28;123835;-57
2022/05/26 01:23:11;;;;;;;5.45;3.65;;;;;;;18.43;53.11;101656.22;5013836;28;123887;-57
2022/05/26 01:26:02;;;;;;;7.25;3.78;;;;;;;18.42;53.38;101654.50;5014449;28;109166;-57
2022/05/26 01:28:38;;;;;;;5.35;3.75;;;;;;;18.40;53.39;101656.44;5013718;28;108071;-59
2022/05/26 01:31:05;;;;;;;8.05;4.18;;;;;;;18.41;53.30;101657.28;5012802;28;123856;-58
2022/05/26 01:34:01;;;;;;;5.82;3.92;;;;;;;18.40;53.57;101656.44;5015909;28;124332;-59
2022/05/26 01:36:41;;;;;;;6.50;4.07;;;;;;;18.41;53.52;101660.81;5010636;28;109986;-59
2022/05/26 01:39:24;;;;;;;9.05;4.38;;;;;;;18.41;53.56;101668.88;5014508;28;109849;-59
2022/05/26 01:42:14;;;;;;;9.85;5.05;;;;;;;18.41;53.69;101668.88;5014866;28;124061;-59
2022/05/26 01:44:51;;;;;;;10.02;5.05;;;;;;;18.41;53.65;101666.19;5010581;28;124578;-59
2022/05/26 01:47:42;;;;;;;9.32;5.05;;;;;;;18.44;53.63;101660.63;5013866;28;110089;-59
2022/05/26 01:50:27;;;;;;;12.70;5.45;;;;;;;18.46;53.74;101672.13;5014017;28;109042;-59
2022/05/26 01:53:06;;;;;;;7.40;4.70;;;;;;;18.46;53.59;101666.75;5010792;28;123904;-59
2022/05/26 01:55:48;;;;;;;10.23;4.97;;;;;;;18.46;53.61;101680.16;5013954;28;123908;-57
2022/05/26 01:58:34;;;;;;;8.95;5.07;;;;;;;18.48;53.67;101680.94;5011247;28;109178;-57
2022/05/26 02:01:08;;;;;;;8.35;5.05;;;;;;;18.51;53.78;101679.00;5010026;28;108302;-56
2022/05/26 02:03:38;;;;;;;8.50;4.95;;;;;;;18.51;53.84;101684.38;5011059;28;124597;-57
2022/05/26 02:06:29;;;;;;;9.93;5.20;;;;;;;18.50;53.83;101688.88;5012766;28;124011;-57
2022/05/26 02:09:08;;;;;;;10.05;5.22;;;;;;;18.51;53.91;101692.41;5010875;28;108969;-57
2022/05/26 02:11:49;;;;;;;10.23;4.78;;;;;;;18.51;53.80;101689.72;5012004;28;108973;-57
2022/05/26 02:14:44;;;;;;;11.43;5.43;;;;;;;18.51;53.85;101679.84;5013158;28;123901;-57
2022/05/26 02:17:24;;;;;;;8.85;5.60;;;;;;;18.53;53.88;101687.81;5013093;28;124307;-57
2022/05/26 02:20:13;;;;;;;10.48;5.35;;;;;;;18.52;53.75;101691.47;5011395;28;108432;-57
2022/05/26 02:23:08;;;;;;;8.65;5.38;;;;;;;18.52;53.96;101691.47;4998136;28;107965;-57
2022/05/26 02:25:35;;;;;;;8.43;5.87;;;;;;;18.51;53.73;101695.09;5011789;28;123167;-57
2022/05/26 02:28:04;;;;;;;11.38;5.75;;;;;;;18.51;53.93;101697.78;5011996;28;122689;-57
2022/05/26 02:30:39;;;;;;;11.10;5.45;;;;;;;18.50;54.14;101702.28;5011525;28;109984;-57
2022/05/26 02:33:09;;;;;;;8.93;5.85;;;;;;;18.51;54.04;101701.31;5010527;28;109930;-57
2022/05/26 02:35:43;;;;;;;11.25;5.50;;;;;;;18.52;54.00;101702.19;5011357;28;123396;-57
2022/05/26 02:38:14;;;;;;;9.98;5.72;;;;;;;18.51;54.08;101700.47;5015863;28;123607;-57
2022/05/26 02:40:43;;;;;;;13.95;6.22;;;;;;;18.52;54.02;101712.94;5010197;28;109003;-57
2022/05/26 02:43:27;;;;;;;12.13;6.03;;;;;;;18.52;54.10;101703.06;5016019;28;108981;-57
2022/05/26 02:46:19;;;;;;;11.05;6.30;;;;;;;18.52;54.10;101707.56;5012879;28;125915;-57
2022/05/26 02:49:04;;;;;;;11.73;5.80;;;;;;;18.49;54.05;101706.78;5006321;28;123021;-58
2022/05/26 02:51:43;;;;;;;13.95;6.80;;;;;;;18.48;54.17;101707.75;5011167;28;109673;-57
2022/05/26 02:54:19;;;;;;;16.58;6.68;;;;;;;18.47;54.14;101711.38;5012333;28;109354;-57
2022/05/26 02:57:14;;;;;;;14.65;6.95;;;;;;;18.48;54.25;101707.75;5010553;28;124042;-57
2022/05/26 03:00:05;;;;;;;12.93;6.50;;;;;;;18.46;54.29;101715.03;5009405;28;123751;-57
2022/05/26 03:02:58;;;;;;;14.43;6.80;;;;;;;18.42;54.22;101708.16;5018574;28;109554;-58
2022/05/26 03:05:45;;;;;;;13.98;7.25;;;;;;;18.42;54.31;101708.16;5011047;28;109114;-57
2022/05/26 03:08:17;;;;;;;15.70;7.05;;;;;;;18.42;54.44;101713.53;5012035;28;124380;-57
2022/05/26 03:11:00;;;;;;;13.10;6.82;;;;;;;18.42;54.42;101710.84;5008991;28;124487;-57
2022/05/26 03:13:27;;;;;;;15.68;6.90;;;;;;;18.42;54.40;101718.88;5015172;28;109489;-57
2022/05/26 03:15:54;;;;;;;15.27;7.13;;;;;;;18.40;54.55;101707.41;5011885;28;109131;-57
2022/05/26 03:18:21;;;;;;;14.05;7.18;;;;;;;18.40;54.51;101711.88;5007978;28;124724;-57
2022/05/26 03:20:48;;;;;;;14.25;7.13;;;;;;;18.38;54.54;101717.34;5011465;28;123032;-57
2022/05/26 03:23:16;;;;;;;14.43;7.53;;;;;;;18.38;54.66;101717.34;5008928;28;110432;-57
2022/05/26 03:25:46;;;;;;;16.38;7.80;;;;;;;18.37;54.93;101712.94;5009427;28;110330;-57
2022/05/26 03:28:13;;;;;;;16.42;7.47;;;;;;;18.37;54.59;101721.00;5012494;28;124523;-57
2022/05/26 03:30:41;;;;;;;13.82;7.18;;;;;;;18.38;54.84;101720.03;5010347;28;124553;-57
2022/05/26 03:33:08;;;;;;;12.90;6.90;;;;;;;18.39;54.72;101729.81;5017463;28;109572;-59
2022/05/26 03:41:06;;;;;;;;;;;;;;;18.37;54.32;101731.72;5011321;28;123684;-59
2022/05/26 03:43:39;;;;;;;12.93;6.90;;;;;;;18.37;54.67;101737.09;5015756;28;108947;-59
2022/05/26 03:46:07;;;;;;;16.80;6.50;;;;;;;18.38;54.69;101744.16;5015625;28;108893;-59
2022/05/26 03:48:35;;;;;;;14.80;7.13;;;;;;;18.37;54.83;101742.44;5011862;28;124911;-57
2022/05/26 03:51:04;;;;;;;13.70;6.93;;;;;;;18.37;54.93;101737.09;5013813;28;124114;-57
2022/05/26 03:53:33;;;;;;;11.23;6.47;;;;;;;18.38;54.94;101749.53;5015729;28;109243;-57
2022/05/26 03:56:01;;;;;;;19.30;6.93;;;;;;;18.38;54.97;101744.16;5015612;28;108861;-57
2022/05/26 03:58:28;;;;;;;17.10;7.30;;;;;;;18.39;55.00;101748.56;5012446;28;124233;-57
2022/05/26 04:01:01;;;;;;;16.70;7.30;;;;;;;18.39;55.23;101751.25;5016968;28;124624;-59
2022/05/26 04:03:28;;;;;;;15.52;6.80;;;;;;;18.40;55.00;101757.47;5013811;28;109587;-58
2022/05/26 04:05:55;;;;;;;14.55;6.72;;;;;;;18.41;55.02;101753.84;5017430;28;109003;-57
2022/05/26 04:08:23;;;;;;;18.30;7.32;;;;;;;18.41;55.01;101765.44;5012179;28;124046;-57
2022/05/26 04:10:50;;;;;;;17.13;6.65;;;;;;;18.41;55.13;101754.69;5010595;28;123990;-57
2022/05/26 04:13:17;;;;;;;19.45;7.30;;;;;;;18.41;55.04;101760.06;5011928;28;110789;-57
2022/05/26 04:15:44;;;;;;;13.88;6.60;;;;;;;18.42;55.21;101761.81;5010259;28;109796;-57
2022/05/26 04:18:12;;;;;;;14.00;6.25;;;;;;;18.41;55.12;101760.06;5011798;28;124292;-57
2022/05/26 04:20:39;;;;;;;12.77;6.55;;;;;;;18.42;55.23;101767.16;5011572;28;123958;-57
2022/05/26 04:23:06;;;;;;;13.52;6.60;;;;;;;18.42;55.24;101767.16;5012516;28;109472;-57
2022/05/26 04:25:34;;;;;;;16.90;6.45;;;;;;;18.43;55.25;101774.25;5013886;28;108868;-57
2022/05/26 04:28:01;;;;;;;16.42;6.70;;;;;;;18.45;55.37;101772.31;5011975;28;123714;-57
2022/05/26 04:30:28;;;;;;;13.48;6.35;;;;;;;18.46;55.15;101779.41;5013110;28;124267;-59
2022/05/26 04:32:56;;;;;;;15.25;6.50;;;;;;;18.49;55.34;101784.56;5015142;28;109569;-57
2022/05/26 04:35:24;;;;;;;21.40;6.85;;;;;;;18.51;55.32;101780.94;5011620;28;108992;-57
2022/05/26 04:37:51;;;;;;;14.63;6.32;;;;;;;18.52;55.24;101777.31;5013956;28;124666;-57
2022/05/26 04:40:18;;;;;;;13.55;5.78;;;;;;;18.52;55.28;101782.69;5013335;28;123723;-57
2022/05/26 04:42:45;;;;;;;18.33;6.05;;;;;;;18.52;55.26;101783.53;5012302;28;109019;-57
2022/05/26 04:45:13;;;;;;;14.10;6.13;;;;;;;18.54;55.37;101786.13;5016164;28;109207;-57
2022/05/26 04:47:41;;;;;;;16.52;6.13;;;;;;;18.55;55.41;101782.47;5012894;28;123385;-57
2022/05/26 04:50:09;;;;;;;13.15;5.53;;;;;;;18.55;55.15;101787.84;5013353;28;123866;-57
2022/05/26 04:52:36;;;;;;;17.00;5.95;;;;;;;18.57;55.42;101791.28;5014864;28;109271;-59
2022/05/26 04:55:05;;;;;;;15.02;5.55;;;;;;;18.61;55.39;101798.16;5012194;28;108978;-59
2022/05/26 04:57:33;;;;;;;14.95;5.32;;;;;;;18.61;55.33;101811.59;5013774;28;124858;-59
2022/05/26 05:00:00;;;;;;;14.35;5.38;;;;;;;18.64;55.33;101814.09;5014505;28;123658;-59
2022/05/26 05:02:29;;;;;;;16.15;5.22;;;;;;;18.63;55.23;101818.59;5014355;28;110441;-59
2022/05/26 05:04:56;;;;;;;14.40;5.18;;;;;;;18.65;55.31;101816.69;5014501;28;110619;-59
2022/05/26 05:07:23;;;;;;;13.35;5.00;;;;;;;18.66;55.22;101812.16;5011088;28;124836;-59
2022/05/26 05:09:51;;;;;;;15.07;4.68;;;;;;;18.66;55.25;101822.91;5010247;28;124568;-60
2022/05/26 05:12:21;;;;;;;13.30;4.60;;;;;;;18.66;55.42;101820.22;5014137;28;109793;-59
2022/05/26 05:14:51;;;;;;;13.73;4.75;;;;;;;18.67;55.28;101825.47;5011323;28;109928;-59
2022/05/26 05:17:20;;;;;;;12.65;4.60;;;;;;;18.70;55.45;101834.28;5010790;28;124126;-58
2022/05/26 05:19:48;;;;;;;13.07;4.47;;;;;;;18.71;55.65;101831.53;5013174;28;124304;-59
2022/05/26 05:22:34;;;;;;;16.58;4.75;;;;;;;18.76;55.30;101832.09;4998895;28;108752;-59
2022/05/26 05:25:06;;;;;;;13.60;4.20;;;;;;;18.80;55.29;101839.03;5016380;28;107768;-59
2022/05/26 05:27:48;;;;;;;16.48;4.57;;;;;;;18.84;55.13;101848.59;5013433;28;124500;-60
2022/05/26 05:30:23;;;;;;;15.07;4.63;;;;;;;18.86;55.17;101846.69;5012239;28;124258;-59
2022/05/26 05:33:02;;;;;;;;;;;;;;;18.85;54.97;101850.34;5010358;28;109211;-59
2022/05/26 05:35:36;;;;;;;14.02;4.55;;;;;;;18.89;55.00;101850.13;5018471;28;108664;-59
2022/05/26 05:38:04;;;;;;;12.63;4.32;;;;;;;18.89;55.05;101855.50;5010328;28;124753;-59
2022/05/26 05:40:31;;;;;;;13.20;4.43;;;;;;;18.90;55.06;101851.84;5012216;28;123938;-59
2022/05/26 05:43:00;;;;;;;14.82;4.60;;;;;;;18.91;55.02;101859.81;5010952;28;109895;-59
2022/05/26 05:45:28;;;;;;;13.45;4.60;;;;;;;18.95;55.26;101865.81;5011422;28;108822;-60
2022/05/26 05:47:56;;;;;;;12.68;4.20;;;;;;;18.98;55.13;101860.28;5012775;28;124400;-59
2022/05/26 05:50:23;;;;;;;11.77;4.32;;;;;;;18.99;54.92;101845.91;5011410;28;124054;-60
2022/05/26 05:52:50;;;;;;;15.20;4.50;;;;;;;19.02;55.05;101851.06;5010412;28;110107;-59
2022/05/26 05:55:17;;;;;;;17.33;3.95;;;;;;;19.05;55.25;101856.25;5013645;28;110176;-59
2022/05/26 05:57:45;;;;;;;11.85;4.18;;;;;;;19.10;55.16;101847.88;5010365;28;123899;-59
2022/05/26 06:00:13;;;;;;;14.45;4.07;;;;;;;19.15;55.12;101851.97;5010615;28;124149;-59
2022/05/26 06:02:41;;;;;;;11.52;4.40;;;;;;;19.20;54.99;101863.28;5012250;28;109423;-60
2022/05/26 06:05:08;;;;;;;12.65;4.00;;;;;;;19.23;54.94;101864.91;5015865;28;109122;-59
2022/05/26 06:07:38;;;;;;;13.20;4.13;;;;;;;19.25;55.25;101869.22;5012812;28;124091;-59
2022/05/26 06:10:12;;;;;;;17.15;4.63;;;;;;;19.32;55.10;101879.56;5010668;28;124315;-59
2022/05/26 06:12:39;;;;;;;14.68;4.55;;;;;;;19.37;55.03;101882.81;5012041;28;108455;-59
2022/05/26 06:15:07;;;;;;;9.98;4.03;;;;;;;19.43;55.06;101882.41;5013404;28;109483;-59
2022/05/26 06:17:34;;;;;;;11.32;4.22;;;;;;;19.48;55.08;101885.66;5011748;28;124351;-59
2022/05/26 06:20:03;;;;;;;13.20;4.18;;;;;;;19.50;54.87;101878.34;5014612;28;123782;-60
2022/05/26 06:22:31;;;;;;;17.80;4.30;;;;;;;19.53;54.63;101888.88;5013441;28;109622;-58
2022/05/26 06:24:58;;;;;;;12.90;4.18;;;;;;;19.53;54.41;101886.19;5011670;28;109350;-58
2022/05/26 06:30:13;;;;;;;;;;;;;;;19.57;54.51;101895.81;5011124;28;124547;-59
2022/05/26 06:38:44;;;;;;;15.75;4.32;;;;;;;19.73;54.56;101900.19;4989895;28;124586;-59
2022/05/26 06:44:11;;;;;;;13.07;4.22;;;;;;;19.81;54.46;101904.06;5002056;28;110262;-59
2022/05/26 06:46:38;;;;;;;8.32;4.35;;;;;;;19.84;54.29;101908.41;5012627;28;110480;-60
2022/05/26 06:49:06;;;;;;;15.90;4.50;;;;;;;19.86;54.44;101914.53;5016773;28;123205;-59
2022/05/26 06:51:39;;;;;;;11.85;4.25;;;;;;;19.95;54.66;101911.22;5014637;28;124300;-59
2022/05/26 06:54:06;;;;;;;12.40;4.32;;;;;;;20.10;54.76;101913.81;5013560;28;109061;-59
2022/05/26 06:56:34;;;;;;;9.52;3.97;;;;;;;20.19;54.27;101910.50;5012665;28;109380;-59
2022/05/26 06:59:01;;;;;;;11.63;4.32;;;;;;;20.25;54.08;101923.53;5009959;28;123926;-59
2022/05/26 07:01:28;;;;;;;14.60;4.57;;;;;;;20.29;54.03;101925.06;5020211;28;124298;-59
2022/05/26 07:03:55;;;;;;;11.68;4.85;;;;;;;20.32;53.82;101932.91;5013595;28;109709;-58
2022/05/26 07:06:26;;;;;;;12.93;4.75;;;;;;;20.43;54.12;101933.00;5016492;28;109190;-58
2022/05/26 07:08:53;;;;;;;13.10;4.72;;;;;;;20.55;54.04;101933.13;5019154;28;124937;-58
2022/05/26 07:11:21;;;;;;;11.13;4.80;;;;;;;20.63;53.68;101933.50;5014795;28;124235;-57
2022/05/26 07:13:48;;;;;;;14.40;5.03;;;;;;;20.67;53.33;101935.00;5015996;28;109093;-57
2022/05/26 07:16:16;;;;;;;11.90;4.68;;;;;;;20.74;53.35;101935.44;5016116;28;109193;-57
2022/05/26 07:18:43;;;;;;;9.85;4.38;;;;;;;20.82;53.47;101945.66;5015925;28;123936;-57
2022/05/26 07:21:11;;;;;;;9.88;4.22;;;;;;;20.89;52.97;101949.63;5017555;28;123809;-57
2022/05/26 07:23:38;;;;;;;13.20;4.65;;;;;;;20.97;52.83;101944.56;5019198;28;109374;-58
2022/05/26 07:26:08;;;;;;;12.52;4.90;;;;;;;21.05;52.88;101944.03;5019009;28;108901;-57
2022/05/26 07:28:38;;;;;;;10.23;4.85;;;;;;;21.15;52.83;101948.66;5015991;28;124371;-57
2022/05/26 07:31:06;;;;;;;9.68;4.20;;;;;;;21.29;53.21;101952.16;5014386;28;124508;-57
2022/05/26 07:33:34;;;;;;;12.15;4.65;;;;;;;21.36;52.34;101948.91;5016172;28;111064;-58
2022/05/26 07:36:02;;;;;;;9.65;4.43;;;;;;;21.44;52.32;101950.19;5014597;28;109810;-57
2022/05/26 07:41:23;;;;;;;6.95;3.75;;;;;;;21.62;52.04;101956.06;5028691;28;124254;-57
2022/05/26 07:43:59;;;;;;;11.35;3.67;;;;;;;21.68;51.74;101963.69;5034236;28;109197;-57
2022/05/26 07:46:26;;;;;;;12.25;4.45;;;;;;;21.73;51.33;101948.88;5033776;28;108979;-58
2022/05/26 07:48:54;;;;;;;6.60;3.80;;;;;;;21.83;51.52;101957.19;5034806;28;124047;-58
2022/05/26 07:51:21;;;;;;;9.00;3.95;;;;;;;21.92;51.30;101956.47;5034313;28;123806;-57
2022/05/26 07:53:49;;;;;;;7.88;3.22;;;;;;;22.02;51.38;101966.56;5032512;28;109220;-58
2022/05/26 07:56:18;;;;;;;8.68;3.58;;;;;;;22.09;50.92;101967.81;5033754;28;109265;-59
2022/05/26 07:58:47;;;;;;;10.55;3.72;;;;;;;22.13;50.69;101969.28;5033030;28;123919;-58
2022/05/26 08:01:16;;;;;;;7.25;3.33;;;;;;;22.14;50.21;101965.63;5033780;28;123896;-57
2022/05/26 08:03:44;;;;;;;6.65;3.60;;;;;;;22.15;49.99;101972.72;5035812;28;109429;-58
2022/05/26 08:06:13;;;;;;;6.75;3.60;;;;;;;22.14;49.93;101981.81;5036091;27;108755;-58
2022/05/26 08:08:40;;;;;;;8.23;4.00;;;;;;;22.12;49.71;101978.38;5029140;28;124295;-57
2022/05/26 08:11:07;;;;;;;8.98;3.60;;;;;;;22.09;49.70;101979.47;5012388;28;123886;-58
2022/05/26 08:13:35;;;;;;;9.25;3.25;;;;;;;22.08;49.58;101985.00;5016724;28;109757;-58
2022/05/26 08:16:06;;;;;;;8.02;4.18;;;;;;;22.11;49.57;101987.44;5017615;28;108944;-58
2022/05/26 08:18:34;;;;;;;11.15;3.92;;;;;;;22.09;49.33;101984.00;5014554;28;124156;-58
2022/05/26 08:21:12;;;;;;;17.27;8.13;;;;;;;22.01;49.07;101975.66;5014250;28;123935;-57
2022/05/26 08:23:39;;;;;;;9.23;4.18;;;;;;;21.95;49.17;101983.22;5012693;28;111045;-58
2022/05/26 08:26:07;;;;;;;9.82;3.90;;;;;;;21.97;49.37;101981.25;5011813;28;110055;-58
2022/05/26 08:28:34;;;;;;;7.80;3.85;;;;;;;22.08;49.97;101987.69;5012798;28;124237;-58
2022/05/26 08:31:01;;;;;;;6.57;3.05;;;;;;;22.21;49.68;101983.09;5014627;28;124661;-58
2022/05/26 08:33:29;;;;;;;7.43;3.78;;;;;;;22.34;49.54;101989.28;5015495;28;109023;-58
2022/05/26 08:36:04;;;;;;;8.70;3.60;;;;;;;22.44;49.27;101994.00;5013441;28;108027;-58
2022/05/26 08:38:36;;;;;;;7.47;3.95;;;;;;;22.52;49.21;101986.16;5011336;28;124782;-58
2022/05/26 08:41:05;;;;;;;8.68;3.38;;;;;;;22.64;48.84;101987.03;5009409;28;123975;-57
2022/05/26 08:43:43;;;;;;;9.88;3.88;;;;;;;22.73;49.07;101979.09;5013024;28;109189;-59
2022/05/26 08:46:17;;;;;;;8.77;3.85;;;;;;;22.83;48.65;101983.72;5011091;28;107978;-58
2022/05/26 08:48:51;;;;;;;6.75;3.80;;;;;;;22.85;48.26;101989.88;5024236;28;123017;-58
2022/05/26 08:51:36;;;;;;;7.30;3.90;;;;;;;22.83;47.99;101994.53;5013539;28;123886;-58
2022/05/26 08:54:07;;;;;;;7.47;4.28;;;;;;;22.77;47.71;102011.22;5011463;28;109523;-58
2022/05/26 08:56:35;;;;;;;6.43;3.83;;;;;;;22.71;47.81;102008.03;5017185;28;108883;-58
2022/05/26 08:59:11;;;;;;;7.70;3.70;;;;;;;22.72;47.96;102009.75;5013308;28;124371;-58
2022/05/26 09:01:39;;;;;;;7.30;3.65;;;;;;;22.77;47.83;102006.69;5012417;28;123782;-59
2022/05/26 09:04:06;;;;;;;7.45;3.63;;;;;;;22.82;47.69;102009.03;5010490;28;108697;-60
2022/05/26 09:15:09;;;;;;;7.13;3.92;;;;;;;22.97;47.10;102001.56;5010219;28;110149;-59
2022/05/26 09:17:36;;;;;;;8.20;3.72;;;;;;;22.98;47.01;102008.69;5010559;28;109821;-60
2022/05/26 09:20:23;;;;;;;5.82;3.17;;;;;;;22.98;46.60;102008.69;5010403;28;124233;-60
2022/05/26 09:22:50;;;;;;;5.72;2.75;;;;;;;22.96;46.61;102011.50;5013485;28;123639;-60
2022/05/26 09:25:37;;;;;;;7.95;3.20;;;;;;;22.94;46.64;102024.25;5011459;28;109032;-59
2022/05/26 09:28:08;;;;;;;7.40;3.15;;;;;;;23.00;46.96;102013.00;5012458;28;108842;-59
2022/05/26 09:30:37;;;;;;;4.80;2.53;;;;;;;23.05;46.87;102016.19;5012454;28;123846;-60
2022/05/26 09:33:28;;;;;;;7.32;3.53;;;;;;;23.10;46.83;102029.38;5015389;28;122940;-59
2022/05/26 09:36:24;;;;;;;4.80;2.65;;;;;;;23.20;47.12;102021.38;5011931;28;109409;-60
2022/05/26 09:38:52;;;;;;;5.00;2.70;;;;;;;23.33;46.89;102030.22;5013439;28;108164;-59
2022/05/26 09:41:20;;;;;;;13.77;3.75;;;;;;;23.43;46.17;102036.63;5011204;28;124543;-59
2022/05/26 09:43:52;;;;;;;6.10;3.22;;;;;;;23.51;45.90;102044.97;5018617;28;124278;-59
2022/05/26 09:46:24;;;;;;;4.45;2.25;;;;;;;23.61;45.58;102038.81;5010958;28;109872;-60
2022/05/26 09:48:57;;;;;;;4.72;2.60;;;;;;;23.69;45.79;102030.91;5000239;28;108421;-59
2022/05/26 09:51:30;;;;;;;6.32;2.38;;;;;;;23.79;45.84;102031.94;5005999;28;123924;-59
2022/05/26 09:53:57;;;;;;;3.85;2.78;;;;;;;23.93;45.36;102032.63;5003827;28;124235;-60
2022/05/26 09:56:40;;;;;;;4.03;2.72;;;;;;;23.97;44.83;102031.38;5006986;28;109184;-58
2022/05/26 09:59:42;;;;;;;6.15;2.55;;;;;;;23.97;44.55;102034.94;5013921;28;109161;-59
2022/05/26 10:02:23;;;;;;;2.63;1.80;;;;;;;23.95;44.16;102036.91;5012944;28;124107;-59
2022/05/26 10:04:50;;;;;;;3.65;2.15;;;;;;;23.90;44.04;102029.19;5009448;28;124555;-59
2022/05/26 10:07:32;;;;;;;7.10;4.28;;;;;;;23.84;44.01;102043.22;5010503;28;110509;-59
2022/05/26 10:10:18;;;;;;;5.47;3.20;;;;;;;23.77;44.15;102042.00;5010754;28;110206;-61
2022/05/26 10:13:15;;;;;;;7.80;3.10;;;;;;;23.75;44.20;102046.63;5013705;28;124081;-60
2022/05/26 10:16:01;;;;;;;7.05;2.90;;;;;;;23.77;44.33;102044.69;4998100;28;123542;-59
2022/05/26 10:18:32;;;;;;;5.13;3.40;;;;;;;23.77;43.83;102044.69;5012403;28;109465;-60
2022/05/26 10:21:09;;;;;;;5.13;2.63;;;;;;;23.76;43.95;102053.78;5011644;28;109747;-59
2022/05/26 10:23:50;;;;;;;4.38;2.20;;;;;;;23.78;44.27;102051.81;5010650;28;124743;-59
2022/05/26 10:26:23;;;;;;;5.30;2.28;;;;;;;23.82;43.46;102058.72;5011594;28;124089;-59
2022/05/26 10:29:37;;;;;;;6.65;3.47;;;;;;;23.72;43.53;102052.31;5013168;28;108124;-60
2022/05/26 10:32:36;;;;;;;8.65;5.43;;;;;;;23.64;43.91;102060.19;5012668;28;108893;-59
2022/05/26 10:35:19;;;;;;;9.20;4.32;;;;;;;23.61;44.01;102055.91;5011075;28;125116;-59
2022/05/26 10:38:08;;;;;;;5.95;3.75;;;;;;;23.60;43.93;102053.31;5015837;28;124524;-59
2022/05/26 10:41:07;;;;;;;8.73;3.40;;;;;;;23.54;43.65;102064.63;5016708;28;109669;-59
2022/05/26 10:43:46;;;;;;;6.22;3.70;;;;;;;23.50;43.96;102064.88;5016807;28;109172;-59
2022/05/26 10:46:17;;;;;;;6.13;4.35;;;;;;;23.55;44.18;102059.09;5016684;28;124063;-59
2022/05/26 10:48:52;;;;;;;7.07;4.15;;;;;;;23.69;44.56;102057.97;5016639;28;124343;-59
2022/05/26 10:51:31;;;;;;;;;;;;;;;23.82;45.05;102056.00;5015164;28;109123;-59
2022/05/26 10:54:25;;;;;;;5.68;2.97;;;;;;;23.97;44.02;102055.75;5016072;28;109620;-59
2022/05/26 10:56:59;;;;;;;5.32;2.80;;;;;;;24.01;43.39;102052.63;5016228;28;124883;-59
2022/05/26 10:59:42;;;;;;;;;;;;;;;24.06;44.38;102054.97;5014091;28;123966;-60
2022/05/26 11:02:20;;;;;;;4.28;2.28;;;;;;;24.16;43.81;102055.06;5016159;28;110495;-60
2022/05/26 11:04:56;;;;;;;3.47;2.40;;;;;;;24.23;43.15;102046.28;5016237;28;110073;-59
2022/05/26 11:07:58;;;;;;;3.95;1.88;;;;;;;24.24;42.83;102042.63;5015922;28;124035;-59
2022/05/26 11:10:48;;;;;;;5.47;2.10;;;;;;;24.31;42.83;102047.50;5013607;28;123867;-59
2022/05/26 11:13:48;;;;;;;3.80;2.05;;;;;;;24.37;43.04;102047.81;5017009;28;109550;-59
2022/05/26 11:19:32;;;;;;;4.00;1.92;;;;;;;24.44;42.14;102056.31;5014996;28;124338;-59
2022/05/26 11:22:01;;;;;;;7.00;2.17;;;;;;;24.43;41.92;102057.28;5015757;28;124780;-59
2022/05/26 11:24:29;;;;;;;5.20;2.38;;;;;;;24.36;41.56;102051.53;5012595;28;109298;-60
2022/05/26 11:26:59;;;;;;;4.25;2.00;;;;;;;24.27;41.15;102064.00;5013772;28;109319;-59
2022/05/26 11:29:39;;;;;;;4.95;1.88;;;;;;;24.17;41.35;102060.34;5013868;28;123948;-59
2022/05/26 11:38:21;;;;;;;3.80;2.38;;;;;;;24.17;42.28;102041.41;5016572;28;109035;-58
2022/05/26 11:41:00;;;;;;;5.60;2.90;;;;;;;24.24;42.16;102048.03;5015079;28;123903;-58
2022/05/26 11:43:33;;;;;;;4.70;2.42;;;;;;;24.27;41.46;102047.75;5015199;28;123428;-58
2022/05/26 11:46:01;;;;;;;4.53;2.40;;;;;;;24.18;41.30;102048.53;5014693;28;109139;-59
2022/05/26 11:48:31;;;;;;;4.93;3.15;;;;;;;24.11;41.35;102047.34;5014672;28;109259;-59
2022/05/26 11:51:12;;;;;;;7.55;3.90;;;;;;;24.10;41.94;102042.91;5014161;28;124253;-58
2022/05/26 11:53:43;;;;;;;7.30;4.30;;;;;;;24.14;41.67;102041.66;5014301;28;122971;-59
2022/05/26 11:56:29;;;;;;;6.35;4.15;;;;;;;24.22;42.05;102043.72;5013731;28;110731;-59
2022/05/26 11:59:41;;;;;;;7.47;4.40;;;;;;;24.29;42.27;102034.09;5013625;28;110391;-59
2022/05/26 12:02:15;;;;;;;5.75;4.65;;;;;;;24.43;42.27;102039.22;5014854;28;124145;-59
2022/05/26 12:04:49;;;;;;;7.03;5.15;;;;;;;24.50;42.11;102031.41;5012915;28;124242;-59
2022/05/26 12:07:17;;;;;;;6.43;5.25;;;;;;;24.57;41.79;102026.38;5014817;28;109994;-59
2022/05/26 12:09:48;;;;;;;7.93;5.45;;;;;;;24.58;41.78;102028.94;5014786;28;108894;-59
2022/05/26 12:12:15;;;;;;;6.70;5.53;;;;;;;24.63;41.44;102028.53;5013767;28;124325;-59
2022/05/26 12:15:00;;;;;;;7.97;5.72;;;;;;;24.65;41.49;102030.09;5012968;28;124653;-59
2022/05/26 12:17:30;;;;;;;8.85;5.55;;;;;;;24.71;41.74;102017.03;5015990;28;109619;-59
2022/05/26 12:20:03;;;;;;;6.75;5.43;;;;;;;24.81;41.64;102018.81;5012140;28;109021;-59
2022/05/26 12:22:36;;;;;;;8.43;5.30;;;;;;;24.88;41.25;102016.41;5014957;28;124537;-60